Terminal Aerodrome Forecast
Issued by NWS

Current Version | Previous Version | Text Only | Print | Product List | Glossary Off
Versions: 1 2 3 4 5 6 7 8 9 10 11 12 13 14 15 16 17 18 19 20

000
FTUS41 KILN 231921 AAC
TAFLCK
TAF AMD
KLCK 231921Z 2319/2418 26005KT P6SM VCSH SCT025 BKN040
     FM232300 26006KT P6SM VCTS BKN040CB
     FM240200 30004KT P6SM SCT080 BKN250
     FM240600 VRB03KT 5SM BR SCT250
     FM241000 VRB03KT 2SM BR SCT250
     FM241300 28005KT P6SM SCT030=

USA.gov is the U.S. government's official web portal to all federal, state and local government web resources and services.